sensor_id;sensor_type;location;lat;lon;timestamp;temperature;humidity
21282;DHT22;10800;53.096;18.328;2024-01-11T00:02:12;-2.70;99.90
21282;DHT22;10800;53.096;18.328;2024-01-11T00:07:18;-2.70;99.90
21282;DHT22;10800;53.096;18.328;2024-01-11T00:12:24;-2.70;99.90
21282;DHT22;10800;53.096;18.328;2024-01-11T00:17:29;-2.70;99.90
21282;DHT22;10800;53.096;18.328;2024-01-11T00:22:35;-2.70;99.90
21282;DHT22;10800;53.096;18.328;2024-01-11T00:27:41;-2.70;99.90
21282;DHT22;10800;53.096;18.328;2024-01-11T00:32:46;-2.70;99.90
21282;DHT22;10800;53.096;18.328;2024-01-11T00:37:52;-2.70;99.90
21282;DHT22;10800;53.096;18.328;2024-01-11T00:42:58;-2.60;99.90
21282;DHT22;10800;53.096;18.328;2024-01-11T00:48:04;-2.50;99.90
21282;DHT22;10800;53.096;18.328;2024-01-11T00:53:10;-2.50;99.90
21282;DHT22;10800;53.096;18.328;2024-01-11T00:58:17;-2.50;99.90
21282;DHT22;10800;53.096;18.328;2024-01-11T01:03:23;-2.40;99.90
21282;DHT22;10800;53.096;18.328;2024-01-11T01:08:29;-2.40;99.90
21282;DHT22;10800;53.096;18.328;2024-01-11T01:13:35;-2.40;99.90
21282;DHT22;10800;53.096;18.328;2024-01-11T01:18:44;-2.40;99.90
21282;DHT22;10800;53.096;18.328;2024-01-11T01:23:50;-2.40;99.90
21282;DHT22;10800;53.096;18.328;2024-01-11T01:28:55;-2.30;99.90
21282;DHT22;10800;53.096;18.328;2024-01-11T01:34:01;-2.30;99.90
21282;DHT22;10800;53.096;18.328;2024-01-11T01:39:07;-2.30;99.90
21282;DHT22;10800;53.096;18.328;2024-01-11T01:44:12;-2.30;99.90
21282;DHT22;10800;53.096;18.328;2024-01-11T01:49:18;-2.20;99.90
21282;DHT22;10800;53.096;18.328;2024-01-11T01:54:25;-2.20;99.90
21282;DHT22;10800;53.096;18.328;2024-01-11T01:59:31;-2.20;99.90
21282;DHT22;10800;53.096;18.328;2024-01-11T02:04:37;-2.20;99.90
21282;DHT22;10800;53.096;18.328;2024-01-11T02:09:44;-2.20;99.90
21282;DHT22;10800;53.096;18.328;2024-01-11T02:14:52;-2.10;99.90
21282;DHT22;10800;53.096;18.328;2024-01-11T02:19:58;-2.10;99.90
21282;DHT22;10800;53.096;18.328;2024-01-11T02:25:04;-2.10;99.90
21282;DHT22;10800;53.096;18.328;2024-01-11T02:30:10;-2.00;99.90
21282;DHT22;10800;53.096;18.328;2024-01-11T02:35:16;-2.10;99.90
21282;DHT22;10800;53.096;18.328;2024-01-11T02:40:23;-2.10;99.90
21282;DHT22;10800;53.096;18.328;2024-01-11T02:45:29;-2.00;99.90
21282;DHT22;10800;53.096;18.328;2024-01-11T02:50:34;-1.90;99.90
21282;DHT22;10800;53.096;18.328;2024-01-11T02:55:40;-1.90;99.90
21282;DHT22;10800;53.096;18.328;2024-01-11T03:00:46;-1.90;99.90
21282;DHT22;10800;53.096;18.328;2024-01-11T03:05:51;-1.80;99.90
21282;DHT22;10800;53.096;18.328;2024-01-11T03:10:58;-1.80;99.90
21282;DHT22;10800;53.096;18.328;2024-01-11T03:16:05;-1.70;99.90
21282;DHT22;10800;53.096;18.328;2024-01-11T03:21:11;-1.60;99.90
21282;DHT22;10800;53.096;18.328;2024-01-11T03:26:17;-1.60;99.90
21282;DHT22;10800;53.096;18.328;2024-01-11T03:31:23;-1.60;99.90
21282;DHT22;10800;53.096;18.328;2024-01-11T03:36:28;-1.60;99.90
21282;DHT22;10800;53.096;18.328;2024-01-11T03:41:34;-1.50;99.90
21282;DHT22;10800;53.096;18.328;2024-01-11T03:46:40;-1.40;99.90
21282;DHT22;10800;53.096;18.328;2024-01-11T03:51:45;-1.40;99.90
21282;DHT22;10800;53.096;18.328;2024-01-11T03:56:51;-1.40;99.90
21282;DHT22;10800;53.096;18.328;2024-01-11T04:01:59;-1.30;99.90
21282;DHT22;10800;53.096;18.328;2024-01-11T04:07:05;-1.20;99.90
21282;DHT22;10800;53.096;18.328;2024-01-11T04:12:10;-1.20;99.90
21282;DHT22;10800;53.096;18.328;2024-01-11T04:17:16;-1.10;99.90
21282;DHT22;10800;53.096;18.328;2024-01-11T04:22:22;-1.00;99.90
21282;DHT22;10800;53.096;18.328;2024-01-11T04:27:28;-0.90;99.90
21282;DHT22;10800;53.096;18.328;2024-01-11T04:32:33;-0.90;99.90
21282;DHT22;10800;53.096;18.328;2024-01-11T04:37:39;-0.80;99.90
21282;DHT22;10800;53.096;18.328;2024-01-11T04:42:44;-0.80;99.90
21282;DHT22;10800;53.096;18.328;2024-01-11T04:47:51;-0.80;99.90
21282;DHT22;10800;53.096;18.328;2024-01-11T04:52:59;-0.70;99.90
21282;DHT22;10800;53.096;18.328;2024-01-11T04:58:15;-0.70;99.90
21282;DHT22;10800;53.096;18.328;2024-01-11T05:03:23;-0.60;99.90
21282;DHT22;10800;53.096;18.328;2024-01-11T05:08:30;-0.60;99.90
21282;DHT22;10800;53.096;18.328;2024-01-11T05:13:39;-0.60;99.90
21282;DHT22;10800;53.096;18.328;2024-01-11T05:18:49;-0.50;99.90
21282;DHT22;10800;53.096;18.328;2024-01-11T05:23:58;-0.50;99.90
21282;DHT22;10800;53.096;18.328;2024-01-11T05:29:03;-0.40;99.90
21282;DHT22;10800;53.096;18.328;2024-01-11T05:34:12;-0.40;99.90
21282;DHT22;10800;53.096;18.328;2024-01-11T05:39:22;-0.40;99.90
21282;DHT22;10800;53.096;18.328;2024-01-11T05:44:27;-0.40;99.90
21282;DHT22;10800;53.096;18.328;2024-01-11T05:49:41;-0.40;99.90
21282;DHT22;10800;53.096;18.328;2024-01-11T05:54:50;-0.30;99.90
21282;DHT22;10800;53.096;18.328;2024-01-11T06:00:01;-0.30;99.90
21282;DHT22;10800;53.096;18.328;2024-01-11T06:05:10;-0.30;99.90
21282;DHT22;10800;53.096;18.328;2024-01-11T06:10:24;-0.30;99.90
21282;DHT22;10800;53.096;18.328;2024-01-11T06:15:34;-0.20;99.90
21282;DHT22;10800;53.096;18.328;2024-01-11T06:20:44;-0.20;99.90
21282;DHT22;10800;53.096;18.328;2024-01-11T06:25:50;-0.10;99.90
21282;DHT22;10800;53.096;18.328;2024-01-11T06:31:00;-0.10;99.90
21282;DHT22;10800;53.096;18.328;2024-01-11T06:36:11;-0.10;99.90
21282;DHT22;10800;53.096;18.328;2024-01-11T06:41:30;-0.10;99.90
21282;DHT22;10800;53.096;18.328;2024-01-11T06:46:38;-0.10;99.90
21282;DHT22;10800;53.096;18.328;2024-01-11T06:52:12;0.00;99.90
21282;DHT22;10800;53.096;18.328;2024-01-11T06:57:26;0.00;99.90
21282;DHT22;10800;53.096;18.328;2024-01-11T07:02:36;0.00;99.90
21282;DHT22;10800;53.096;18.328;2024-01-11T07:07:46;0.10;99.90
21282;DHT22;10800;53.096;18.328;2024-01-11T07:12:54;0.10;99.90
21282;DHT22;10800;53.096;18.328;2024-01-11T07:18:05;0.10;99.90
21282;DHT22;10800;53.096;18.328;2024-01-11T07:23:13;0.10;99.90
21282;DHT22;10800;53.096;18.328;2024-01-11T07:28:26;0.10;99.90
21282;DHT22;10800;53.096;18.328;2024-01-11T07:33:35;0.20;99.90
21282;DHT22;10800;53.096;18.328;2024-01-11T07:38:45;0.20;99.90
21282;DHT22;10800;53.096;18.328;2024-01-11T07:43:56;0.20;99.90
21282;DHT22;10800;53.096;18.328;2024-01-11T07:49:04;0.20;99.90
21282;DHT22;10800;53.096;18.328;2024-01-11T07:54:11;0.20;99.90
21282;DHT22;10800;53.096;18.328;2024-01-11T07:59:19;0.30;99.90
21282;DHT22;10800;53.096;18.328;2024-01-11T08:04:26;0.30;99.90
21282;DHT22;10800;53.096;18.328;2024-01-11T08:09:34;0.30;99.90
21282;DHT22;10800;53.096;18.328;2024-01-11T08:14:39;0.40;99.90
21282;DHT22;10800;53.096;18.328;2024-01-11T08:19:46;0.40;99.90
21282;DHT22;10800;53.096;18.328;2024-01-11T08:24:53;0.40;99.90
21282;DHT22;10800;53.096;18.328;2024-01-11T08:30:02;0.40;99.90
21282;DHT22;10800;53.096;18.328;2024-01-11T08:35:10;0.40;99.90
21282;DHT22;10800;53.096;18.328;2024-01-11T08:40:17;0.50;99.90
21282;DHT22;10800;53.096;18.328;2024-01-11T08:45:23;0.50;99.90
21282;DHT22;10800;53.096;18.328;2024-01-11T08:50:31;0.60;99.90
21282;DHT22;10800;53.096;18.328;2024-01-11T08:55:37;0.60;99.90
21282;DHT22;10800;53.096;18.328;2024-01-11T09:00:50;0.60;99.90
21282;DHT22;10800;53.096;18.328;2024-01-11T09:05:56;0.70;99.90
21282;DHT22;10800;53.096;18.328;2024-01-11T09:11:03;0.70;99.90
21282;DHT22;10800;53.096;18.328;2024-01-11T09:16:09;0.80;99.90
21282;DHT22;10800;53.096;18.328;2024-01-11T09:21:15;0.80;99.90
21282;DHT22;10800;53.096;18.328;2024-01-11T09:26:21;0.90;99.90
21282;DHT22;10800;53.096;18.328;2024-01-11T09:36:55;1.00;99.90
21282;DHT22;10800;53.096;18.328;2024-01-11T09:42:08;1.10;99.90
21282;DHT22;10800;53.096;18.328;2024-01-11T09:47:16;1.10;99.90
21282;DHT22;10800;53.096;18.328;2024-01-11T09:52:27;1.20;99.90
21282;DHT22;10800;53.096;18.328;2024-01-11T09:57:37;1.20;99.90
21282;DHT22;10800;53.096;18.328;2024-01-11T10:02:46;1.30;99.90
21282;DHT22;10800;53.096;18.328;2024-01-11T10:07:53;1.30;99.90
21282;DHT22;10800;53.096;18.328;2024-01-11T10:13:02;1.30;99.90
21282;DHT22;10800;53.096;18.328;2024-01-11T10:18:07;1.40;99.90
21282;DHT22;10800;53.096;18.328;2024-01-11T10:23:15;1.50;99.90
21282;DHT22;10800;53.096;18.328;2024-01-11T10:28:22;1.60;99.90
21282;DHT22;10800;53.096;18.328;2024-01-11T10:33:27;1.70;99.90
21282;DHT22;10800;53.096;18.328;2024-01-11T10:38:41;1.80;99.90
21282;DHT22;10800;53.096;18.328;2024-01-11T10:43:59;1.80;99.90
21282;DHT22;10800;53.096;18.328;2024-01-11T10:49:08;1.80;99.90
21282;DHT22;10800;53.096;18.328;2024-01-11T10:54:24;1.70;99.90
21282;DHT22;10800;53.096;18.328;2024-01-11T10:59:36;1.80;99.90
21282;DHT22;10800;53.096;18.328;2024-01-11T11:04:51;1.90;99.90
21282;DHT22;10800;53.096;18.328;2024-01-11T11:10:05;1.90;99.90
21282;DHT22;10800;53.096;18.328;2024-01-11T11:15:15;2.00;99.90
21282;DHT22;10800;53.096;18.328;2024-01-11T11:20:45;2.00;99.90
21282;DHT22;10800;53.096;18.328;2024-01-11T11:25:55;2.00;99.90
21282;DHT22;10800;53.096;18.328;2024-01-11T11:31:05;2.00;99.90
21282;DHT22;10800;53.096;18.328;2024-01-11T11:36:17;1.90;99.90
21282;DHT22;10800;53.096;18.328;2024-01-11T11:41:23;1.90;99.90
21282;DHT22;10800;53.096;18.328;2024-01-11T11:46:30;1.90;99.90
21282;DHT22;10800;53.096;18.328;2024-01-11T11:51:38;1.90;99.90
21282;DHT22;10800;53.096;18.328;2024-01-11T11:56:45;1.90;99.90
21282;DHT22;10800;53.096;18.328;2024-01-11T12:01:52;2.00;99.90
21282;DHT22;10800;53.096;18.328;2024-01-11T12:06:58;2.10;99.90
21282;DHT22;10800;53.096;18.328;2024-01-11T12:12:04;2.00;99.90
21282;DHT22;10800;53.096;18.328;2024-01-11T12:17:12;2.00;99.90
21282;DHT22;10800;53.096;18.328;2024-01-11T12:22:17;2.00;99.90
21282;DHT22;10800;53.096;18.328;2024-01-11T12:27:23;2.10;99.90
21282;DHT22;10800;53.096;18.328;2024-01-11T12:32:29;2.00;99.90
21282;DHT22;10800;53.096;18.328;2024-01-11T12:37:35;2.00;99.90
21282;DHT22;10800;53.096;18.328;2024-01-11T12:42:41;2.00;99.90
21282;DHT22;10800;53.096;18.328;2024-01-11T12:47:47;2.00;99.90
21282;DHT22;10800;53.096;18.328;2024-01-11T12:53:13;2.00;99.90
21282;DHT22;10800;53.096;18.328;2024-01-11T12:58:24;2.00;99.90
21282;DHT22;10800;53.096;18.328;2024-01-11T13:03:35;2.00;99.90
21282;DHT22;10800;53.096;18.328;2024-01-11T13:08:41;2.00;99.90
21282;DHT22;10800;53.096;18.328;2024-01-11T13:13:48;2.00;99.90
21282;DHT22;10800;53.096;18.328;2024-01-11T13:18:53;2.00;99.90
21282;DHT22;10800;53.096;18.328;2024-01-11T13:23:59;2.00;99.90
21282;DHT22;10800;53.096;18.328;2024-01-11T13:29:05;1.90;99.90
21282;DHT22;10800;53.096;18.328;2024-01-11T13:34:11;2.00;99.90
21282;DHT22;10800;53.096;18.328;2024-01-11T13:39:16;1.90;99.90
21282;DHT22;10800;53.096;18.328;2024-01-11T13:44:22;2.00;99.90
21282;DHT22;10800;53.096;18.328;2024-01-11T13:49:28;1.90;99.90
21282;DHT22;10800;53.096;18.328;2024-01-11T13:54:34;1.90;99.90
21282;DHT22;10800;53.096;18.328;2024-01-11T13:59:41;1.90;99.90
21282;DHT22;10800;53.096;18.328;2024-01-11T14:04:47;2.00;99.90
21282;DHT22;10800;53.096;18.328;2024-01-11T14:09:52;1.90;99.90
21282;DHT22;10800;53.096;18.328;2024-01-11T14:14:58;1.90;99.90
21282;DHT22;10800;53.096;18.328;2024-01-11T14:20:05;1.90;99.90
21282;DHT22;10800;53.096;18.328;2024-01-11T14:25:13;1.80;99.90
21282;DHT22;10800;53.096;18.328;2024-01-11T14:30:19;1.80;99.90
21282;DHT22;10800;53.096;18.328;2024-01-11T14:35:26;1.80;99.90
21282;DHT22;10800;53.096;18.328;2024-01-11T14:40:33;1.80;99.90
21282;DHT22;10800;53.096;18.328;2024-01-11T14:45:39;1.80;99.90
21282;DHT22;10800;53.096;18.328;2024-01-11T14:50:45;1.70;99.90
21282;DHT22;10800;53.096;18.328;2024-01-11T14:55:51;1.80;99.90
21282;DHT22;10800;53.096;18.328;2024-01-11T15:00:56;1.80;99.90
21282;DHT22;10800;53.096;18.328;2024-01-11T15:06:02;1.80;99.90
21282;DHT22;10800;53.096;18.328;2024-01-11T15:11:09;1.80;99.90
21282;DHT22;10800;53.096;18.328;2024-01-11T15:16:15;1.80;99.90
21282;DHT22;10800;53.096;18.328;2024-01-11T15:21:21;1.80;99.90
21282;DHT22;10800;53.096;18.328;2024-01-11T15:26:28;1.80;99.90
21282;DHT22;10800;53.096;18.328;2024-01-11T15:31:34;1.80;99.90
21282;DHT22;10800;53.096;18.328;2024-01-11T15:36:42;1.80;99.90
21282;DHT22;10800;53.096;18.328;2024-01-11T15:41:47;1.80;99.90
21282;DHT22;10800;53.096;18.328;2024-01-11T15:46:53;1.80;99.90
21282;DHT22;10800;53.096;18.328;2024-01-11T15:52:00;1.90;99.90
21282;DHT22;10800;53.096;18.328;2024-01-11T15:57:10;1.80;99.90
21282;DHT22;10800;53.096;18.328;2024-01-11T16:02:18;1.90;99.90
21282;DHT22;10800;53.096;18.328;2024-01-11T16:07:25;1.90;99.90
21282;DHT22;10800;53.096;18.328;2024-01-11T16:12:37;1.90;99.90
21282;DHT22;10800;53.096;18.328;2024-01-11T16:17:42;1.90;99.90
21282;DHT22;10800;53.096;18.328;2024-01-11T16:22:48;1.90;99.90
21282;DHT22;10800;53.096;18.328;2024-01-11T16:27:53;1.90;99.90
21282;DHT22;10800;53.096;18.328;2024-01-11T16:32:59;2.00;99.90
21282;DHT22;10800;53.096;18.328;2024-01-11T16:38:07;1.90;99.90
21282;DHT22;10800;53.096;18.328;2024-01-11T16:43:18;1.90;99.90
21282;DHT22;10800;53.096;18.328;2024-01-11T16:48:24;2.00;99.90
21282;DHT22;10800;53.096;18.328;2024-01-11T16:53:31;2.10;99.90
21282;DHT22;10800;53.096;18.328;2024-01-11T16:58:37;2.10;99.90
21282;DHT22;10800;53.096;18.328;2024-01-11T17:03:43;2.10;99.90
21282;DHT22;10800;53.096;18.328;2024-01-11T17:08:49;2.20;99.90
21282;DHT22;10800;53.096;18.328;2024-01-11T17:14:20;2.30;99.90
21282;DHT22;10800;53.096;18.328;2024-01-11T17:19:25;2.30;99.90
21282;DHT22;10800;53.096;18.328;2024-01-11T17:24:31;2.40;99.90
21282;DHT22;10800;53.096;18.328;2024-01-11T17:29:37;2.40;99.90
21282;DHT22;10800;53.096;18.328;2024-01-11T17:34:44;2.20;99.90
21282;DHT22;10800;53.096;18.328;2024-01-11T17:39:51;2.10;99.90
21282;DHT22;10800;53.096;18.328;2024-01-11T17:44:57;2.00;99.90
21282;DHT22;10800;53.096;18.328;2024-01-11T17:50:03;1.90;99.90
21282;DHT22;10800;53.096;18.328;2024-01-11T17:55:10;1.90;99.90
21282;DHT22;10800;53.096;18.328;2024-01-11T18:00:16;1.90;99.90
21282;DHT22;10800;53.096;18.328;2024-01-11T18:05:23;1.70;99.90
21282;DHT22;10800;53.096;18.328;2024-01-11T18:10:29;1.70;99.90
21282;DHT22;10800;53.096;18.328;2024-01-11T18:15:37;1.70;99.90
21282;DHT22;10800;53.096;18.328;2024-01-11T18:20:42;1.70;99.90
21282;DHT22;10800;53.096;18.328;2024-01-11T18:25:48;1.80;99.90
21282;DHT22;10800;53.096;18.328;2024-01-11T18:30:54;1.80;99.90
21282;DHT22;10800;53.096;18.328;2024-01-11T18:36:00;2.10;99.90
21282;DHT22;10800;53.096;18.328;2024-01-11T18:41:06;2.10;99.90
21282;DHT22;10800;53.096;18.328;2024-01-11T18:46:13;2.10;99.90
21282;DHT22;10800;53.096;18.328;2024-01-11T18:51:22;2.00;99.90
21282;DHT22;10800;53.096;18.328;2024-01-11T18:56:28;1.90;99.90
21282;DHT22;10800;53.096;18.328;2024-01-11T19:01:35;1.80;99.90
21282;DHT22;10800;53.096;18.328;2024-01-11T19:06:41;1.70;99.90
21282;DHT22;10800;53.096;18.328;2024-01-11T19:11:48;1.70;99.90
21282;DHT22;10800;53.096;18.328;2024-01-11T19:16:58;1.70;99.90
21282;DHT22;10800;53.096;18.328;2024-01-11T19:22:05;1.60;99.90
21282;DHT22;10800;53.096;18.328;2024-01-11T19:27:11;1.60;99.90
21282;DHT22;10800;53.096;18.328;2024-01-11T19:32:23;1.50;99.90
21282;DHT22;10800;53.096;18.328;2024-01-11T19:37:44;1.50;99.90
21282;DHT22;10800;53.096;18.328;2024-01-11T19:42:56;1.40;99.90
21282;DHT22;10800;53.096;18.328;2024-01-11T19:48:04;1.30;99.90
21282;DHT22;10800;53.096;18.328;2024-01-11T19:53:10;1.20;99.90
21282;DHT22;10800;53.096;18.328;2024-01-11T19:58:18;1.20;99.90
21282;DHT22;10800;53.096;18.328;2024-01-11T20:03:24;1.10;99.90
21282;DHT22;10800;53.096;18.328;2024-01-11T20:08:30;1.00;99.90
21282;DHT22;10800;53.096;18.328;2024-01-11T20:13:35;1.00;99.90
21282;DHT22;10800;53.096;18.328;2024-01-11T20:18:41;1.00;99.90
21282;DHT22;10800;53.096;18.328;2024-01-11T20:23:49;1.10;99.90
21282;DHT22;10800;53.096;18.328;2024-01-11T20:28:55;1.00;99.90
21282;DHT22;10800;53.096;18.328;2024-01-11T20:34:00;1.00;99.90
21282;DHT22;10800;53.096;18.328;2024-01-11T20:39:07;1.00;99.90
21282;DHT22;10800;53.096;18.328;2024-01-11T20:44:14;0.90;99.90
21282;DHT22;10800;53.096;18.328;2024-01-11T20:49:23;0.90;99.90
21282;DHT22;10800;53.096;18.328;2024-01-11T20:54:28;0.90;99.90
21282;DHT22;10800;53.096;18.328;2024-01-11T20:59:34;0.80;99.90
21282;DHT22;10800;53.096;18.328;2024-01-11T21:04:40;0.70;99.90
21282;DHT22;10800;53.096;18.328;2024-01-11T21:09:49;0.60;99.90
21282;DHT22;10800;53.096;18.328;2024-01-11T21:15:38;0.50;99.90
21282;DHT22;10800;53.096;18.328;2024-01-11T21:21:08;0.40;99.90
21282;DHT22;10800;53.096;18.328;2024-01-11T21:26:45;0.30;99.90
21282;DHT22;10800;53.096;18.328;2024-01-11T21:32:19;0.20;99.90
21282;DHT22;10800;53.096;18.328;2024-01-11T21:37:48;0.10;99.90
21282;DHT22;10800;53.096;18.328;2024-01-11T21:43:46;0.10;99.90
21282;DHT22;10800;53.096;18.328;2024-01-11T21:49:12;0.00;99.90
21282;DHT22;10800;53.096;18.328;2024-01-11T21:54:50;0.00;99.90
21282;DHT22;10800;53.096;18.328;2024-01-11T22:00:29;0.00;99.90
21282;DHT22;10800;53.096;18.328;2024-01-11T22:05:51;0.10;99.90
21282;DHT22;10800;53.096;18.328;2024-01-11T22:11:39;0.20;99.90
21282;DHT22;10800;53.096;18.328;2024-01-11T22:17:16;0.30;99.90
21282;DHT22;10800;53.096;18.328;2024-01-11T22:22:57;0.30;99.90
21282;DHT22;10800;53.096;18.328;2024-01-11T22:28:29;0.40;99.90
21282;DHT22;10800;53.096;18.328;2024-01-11T22:34:10;0.20;99.90
21282;DHT22;10800;53.096;18.328;2024-01-11T22:40:06;0.20;99.90
21282;DHT22;10800;53.096;18.328;2024-01-11T22:45:30;0.20;99.90
21282;DHT22;10800;53.096;18.328;2024-01-11T22:51:13;0.20;99.90
21282;DHT22;10800;53.096;18.328;2024-01-11T22:56:52;0.30;99.90
21282;DHT22;10800;53.096;18.328;2024-01-11T23:02:21;0.40;99.90
21282;DHT22;10800;53.096;18.328;2024-01-11T23:07:36;0.40;99.90
21282;DHT22;10800;53.096;18.328;2024-01-11T23:13:25;0.50;99.90
21282;DHT22;10800;53.096;18.328;2024-01-11T23:18:47;0.50;99.90
21282;DHT22;10800;53.096;18.328;2024-01-11T23:24:39;0.40;99.90
21282;DHT22;10800;53.096;18.328;2024-01-11T23:30:05;0.30;99.90
21282;DHT22;10800;53.096;18.328;2024-01-11T23:35:23;0.40;99.90
21282;DHT22;10800;53.096;18.328;2024-01-11T23:41:01;0.30;99.90
21282;DHT22;10800;53.096;18.328;2024-01-11T23:46:29;0.20;99.90
21282;DHT22;10800;53.096;18.328;2024-01-11T23:51:54;0.20;99.90
21282;DHT22;10800;53.096;18.328;2024-01-11T23:57:08;0.20;99.90
